createdAt,value
2018-05-13T00:00:01.345Z,83.90
2018-05-13T00:02:28.918Z,84.00
2018-05-13T00:04:56.722Z,83.50
2018-05-13T00:07:24.377Z,83.10
2018-05-13T00:09:51.876Z,83.30
2018-05-13T00:12:20.130Z,84.50
2018-05-13T00:14:47.596Z,84.40
2018-05-13T00:17:15.081Z,85.40
2018-05-13T00:19:43.318Z,86.00
2018-05-13T00:22:10.803Z,86.00
2018-05-13T00:24:39.053Z,86.80
2018-05-13T00:27:06.529Z,86.10
2018-05-13T00:29:34.757Z,86.50
2018-05-13T00:32:02.240Z,85.90
2018-05-13T00:34:29.700Z,85.70
2018-05-13T00:36:57.172Z,85.90
2018-05-13T00:39:24.635Z,85.70
2018-05-13T00:41:52.133Z,85.70
2018-05-13T00:44:19.600Z,85.90
2018-05-13T00:46:48.089Z,85.80
2018-05-13T00:49:15.569Z,85.70
2018-05-13T00:51:43.092Z,85.90
2018-05-13T00:54:22.490Z,86.00
2018-05-13T00:56:49.964Z,85.90
2018-05-13T00:59:17.476Z,85.90
2018-05-13T01:01:44.941Z,86.20
2018-05-13T01:04:12.422Z,86.40
2018-05-13T01:06:40.660Z,86.50
2018-05-13T01:09:08.132Z,86.40
2018-05-13T01:11:35.595Z,86.10
2018-05-13T01:14:03.083Z,86.40
2018-05-13T01:16:31.311Z,87.40
2018-05-13T01:18:58.792Z,87.40
2018-05-13T01:21:26.282Z,87.30
2018-05-13T01:23:54.521Z,87.50
2018-05-13T01:26:22.000Z,87.50
2018-05-13T01:28:49.460Z,88.10
2018-05-13T01:31:17.712Z,90.00
2018-05-13T01:33:45.177Z,90.00
2018-05-13T01:36:12.660Z,90.30
2018-05-13T01:38:40.888Z,90.90
2018-05-13T01:41:08.363Z,90.90
2018-05-13T01:43:35.823Z,90.90
2018-05-13T01:46:03.303Z,90.90
2018-05-13T01:48:31.536Z,91.50
2018-05-13T01:50:59.027Z,91.40
2018-05-13T01:53:27.267Z,91.60
2018-05-13T01:55:54.741Z,91.60
2018-05-13T01:58:22.233Z,91.70
2018-05-13T02:00:50.463Z,91.80
2018-05-13T02:03:17.949Z,91.70
2018-05-13T02:05:45.413Z,91.60
2018-05-13T02:08:12.896Z,91.90
2018-05-13T02:10:41.130Z,92.10
2018-05-13T02:13:08.606Z,92.10
2018-05-13T02:15:36.064Z,92.00
2018-05-13T02:18:03.528Z,92.10
2018-05-13T02:20:31.775Z,92.40
2018-05-13T02:22:59.235Z,92.40
2018-05-13T02:25:26.727Z,92.50
2018-05-13T02:27:54.967Z,93.00
2018-05-13T02:30:22.447Z,93.00
2018-05-13T02:32:51.428Z,93.20
2018-05-13T02:35:18.903Z,93.20
2018-05-13T02:37:46.379Z,93.40
2018-05-13T02:40:14.621Z,93.60
2018-05-13T02:42:42.109Z,93.50
2018-05-13T02:45:10.327Z,93.20
2018-05-13T02:47:37.808Z,93.20
2018-05-13T02:50:05.282Z,93.20
2018-05-13T02:52:32.757Z,93.20
2018-05-13T02:55:00.983Z,93.40
2018-05-13T02:57:28.625Z,93.40
2018-05-13T02:59:56.090Z,93.50
2018-05-13T03:02:23.575Z,93.60
2018-05-13T03:04:51.055Z,93.70
2018-05-13T03:07:18.532Z,93.80
2018-05-13T03:09:46.763Z,93.80
2018-05-13T03:12:14.251Z,93.80
2018-05-13T03:14:42.481Z,95.80
2018-05-13T03:17:09.964Z,95.50
2018-05-13T03:19:37.431Z,96.60
2018-05-13T03:22:04.891Z,96.90
2018-05-13T03:24:32.388Z,97.40
2018-05-13T03:26:59.848Z,97.00
2018-05-13T03:29:27.373Z,98.20
2018-05-13T03:31:54.835Z,99.90
2018-05-13T03:34:22.320Z,99.90
2018-05-13T03:36:49.809Z,99.90
2018-05-13T03:39:17.296Z,99.90
2018-05-13T03:41:44.771Z,99.90
2018-05-13T03:44:13.004Z,99.90
2018-05-13T03:46:40.480Z,99.90
2018-05-13T03:49:07.948Z,99.90
2018-05-13T03:51:35.431Z,99.90
2018-05-13T03:54:03.660Z,99.90
2018-05-13T03:56:31.196Z,99.90
2018-05-13T03:58:58.664Z,99.90
2018-05-13T04:01:27.052Z,99.90
2018-05-13T04:03:54.512Z,99.90
2018-05-13T04:06:22.004Z,99.90
2018-05-13T04:09:01.264Z,99.90
2018-05-13T04:11:41.472Z,99.90
2018-05-13T04:14:20.851Z,99.90
2018-05-13T04:16:49.100Z,99.90
2018-05-13T04:19:16.563Z,99.90
2018-05-13T04:21:44.024Z,99.90
2018-05-13T04:24:11.502Z,99.90
2018-05-13T04:26:39.723Z,99.90
2018-05-13T04:29:07.203Z,99.90
2018-05-13T04:31:34.669Z,99.90
2018-05-13T04:34:02.931Z,99.90
2018-05-13T04:36:30.416Z,99.90
2018-05-13T04:38:58.664Z,99.90
2018-05-13T04:41:26.130Z,99.90
2018-05-13T04:43:53.604Z,99.90
2018-05-13T04:46:21.068Z,99.90
2018-05-13T04:48:49.299Z,99.90
2018-05-13T04:51:16.780Z,99.90
2018-05-13T04:53:44.246Z,99.90
2018-05-13T04:56:12.485Z,99.90
2018-05-13T04:58:39.953Z,99.90
2018-05-13T05:01:07.427Z,99.90
2018-05-13T05:03:34.892Z,99.90
2018-05-13T05:06:02.388Z,99.90
2018-05-13T05:08:29.867Z,99.90
2018-05-13T05:10:57.359Z,99.90
2018-05-13T05:13:24.833Z,99.90
2018-05-13T05:15:52.298Z,99.90
2018-05-13T05:18:19.771Z,99.90
2018-05-13T05:20:48.015Z,99.90
2018-05-13T05:23:15.529Z,99.90
2018-05-13T05:25:42.996Z,99.90
2018-05-13T05:28:10.479Z,99.90
2018-05-13T05:30:37.953Z,99.90
2018-05-13T05:33:05.415Z,99.90
2018-05-13T05:35:32.892Z,99.90
2018-05-13T05:38:01.128Z,99.90
2018-05-13T05:40:28.607Z,99.90
2018-05-13T05:42:56.072Z,99.90
2018-05-13T05:45:23.552Z,99.90
2018-05-13T05:47:51.043Z,99.90
2018-05-13T05:50:18.511Z,99.90
2018-05-13T05:52:46.003Z,99.90
2018-05-13T05:55:13.461Z,99.90
2018-05-13T05:57:40.932Z,99.90
2018-05-13T06:00:09.183Z,99.90
2018-05-13T06:02:36.660Z,99.90
2018-05-13T06:05:04.896Z,99.90
2018-05-13T06:07:32.389Z,99.90
2018-05-13T06:09:59.868Z,99.90
2018-05-13T06:12:28.095Z,99.90
2018-05-13T06:14:55.684Z,99.90
2018-05-13T06:17:23.159Z,99.90
2018-05-13T06:19:51.435Z,99.90
2018-05-13T06:22:19.665Z,99.90
2018-05-13T06:24:47.128Z,99.90
2018-05-13T06:27:14.608Z,99.90
2018-05-13T06:29:42.844Z,99.90
2018-05-13T06:32:10.324Z,99.90
2018-05-13T06:34:37.783Z,99.90
2018-05-13T06:37:05.272Z,99.90
2018-05-13T06:39:33.555Z,99.90
2018-05-13T06:42:01.004Z,99.90
2018-05-13T06:44:29.236Z,99.90
2018-05-13T06:46:56.703Z,99.90
2018-05-13T06:49:24.191Z,99.90
2018-05-13T06:51:52.455Z,99.90
2018-05-13T06:54:20.702Z,99.90
2018-05-13T06:56:48.180Z,99.90
2018-05-13T06:59:16.439Z,99.90
2018-05-13T07:01:43.924Z,99.90
2018-05-13T07:04:12.176Z,99.90
2018-05-13T07:06:39.647Z,99.90
2018-05-13T07:09:08.649Z,99.90
2018-05-13T07:11:36.120Z,99.90
2018-05-13T07:14:04.393Z,99.90
2018-05-13T07:16:31.966Z,99.90
2018-05-13T07:18:59.368Z,99.90
2018-05-13T07:21:26.853Z,99.90
2018-05-13T07:23:54.328Z,99.90
2018-05-13T07:26:23.320Z,99.90
2018-05-13T07:28:50.821Z,99.90
2018-05-13T07:31:18.332Z,99.90
2018-05-13T07:33:47.308Z,99.90
2018-05-13T07:36:14.797Z,99.90
2018-05-13T07:38:42.851Z,99.90
2018-05-13T07:41:11.324Z,99.90
2018-05-13T07:43:38.832Z,99.90
2018-05-13T07:46:06.332Z,99.90
2018-05-13T07:48:33.812Z,99.90
2018-05-13T07:51:02.113Z,99.90
2018-05-13T07:53:29.564Z,99.90
2018-05-13T07:55:57.204Z,99.90
2018-05-13T07:58:24.677Z,99.90
2018-05-13T08:00:52.933Z,99.90
2018-05-13T08:03:20.418Z,99.90
2018-05-13T08:05:48.696Z,99.90
2018-05-13T08:08:16.953Z,99.90
2018-05-13T08:10:44.504Z,99.90
2018-05-13T08:13:12.784Z,99.90
2018-05-13T08:15:40.265Z,99.90
2018-05-13T08:18:07.795Z,99.90
2018-05-13T08:20:35.315Z,99.90
2018-05-13T08:23:04.443Z,99.90
2018-05-13T08:25:31.912Z,99.90
2018-05-13T08:27:59.417Z,99.90
2018-05-13T08:30:27.648Z,99.90
2018-05-13T08:32:55.126Z,99.90
2018-05-13T08:35:23.384Z,99.90
2018-05-13T08:37:50.868Z,99.90
2018-05-13T08:40:19.130Z,99.90
